createdAt,value
2023-01-21T00:00:18.324Z,28.70
2023-01-21T00:00:48.119Z,28.65
2023-01-21T00:01:18.147Z,28.65
2023-01-21T00:01:48.171Z,28.63
2023-01-21T00:02:18.464Z,28.67
2023-01-21T00:02:48.237Z,28.59
2023-01-21T00:03:18.323Z,28.67
2023-01-21T00:03:48.427Z,28.65
2023-01-21T00:04:18.457Z,28.62
2023-01-21T00:04:48.495Z,28.62
2023-01-21T00:05:18.515Z,28.59
2023-01-21T00:05:48.570Z,28.58
2023-01-21T00:06:18.619Z,28.51
2023-01-21T00:06:48.625Z,28.53
2023-01-21T00:07:18.662Z,28.48
2023-01-21T00:07:48.729Z,28.47
2023-01-21T00:08:18.785Z,28.48
2023-01-21T00:08:48.889Z,28.54
2023-01-21T00:09:18.918Z,28.50
2023-01-21T00:09:48.953Z,28.50
2023-01-21T00:10:19.056Z,28.56
2023-01-21T00:10:49.069Z,28.53
2023-01-21T00:11:19.102Z,28.51
2023-01-21T00:11:49.121Z,28.48
2023-01-21T00:12:19.157Z,28.42
2023-01-21T00:12:49.189Z,28.50
2023-01-21T00:13:19.222Z,28.42
2023-01-21T00:13:49.253Z,28.44
2023-01-21T00:14:19.290Z,28.45
2023-01-21T00:14:49.319Z,28.42
2023-01-21T00:15:19.350Z,28.47
2023-01-21T00:15:49.443Z,28.47
2023-01-21T00:16:19.451Z,28.45
2023-01-21T00:16:49.481Z,28.45
2023-01-21T00:17:19.509Z,28.42
2023-01-21T00:17:49.543Z,28.42
2023-01-21T00:18:19.580Z,28.41
2023-01-21T00:18:49.609Z,28.38
2023-01-21T00:19:19.637Z,28.48
2023-01-21T00:19:49.667Z,28.44
2023-01-21T00:20:19.935Z,28.46
2023-01-21T00:20:49.828Z,28.54
2023-01-21T00:21:19.856Z,28.47
2023-01-21T00:21:49.896Z,28.45
2023-01-21T00:22:19.928Z,28.45
2023-01-21T00:22:49.951Z,28.47
2023-01-21T00:23:19.972Z,28.51
2023-01-21T00:23:49.943Z,28.58
2023-01-21T00:24:20.061Z,28.47
2023-01-21T00:24:50.056Z,28.44
2023-01-21T00:25:20.174Z,28.48
2023-01-21T00:25:50.290Z,28.44
2023-01-21T00:26:20.285Z,28.42
2023-01-21T00:26:50.287Z,28.50
2023-01-21T00:27:20.400Z,28.48
2023-01-21T00:27:50.398Z,28.47
2023-01-21T00:28:20.396Z,28.47
2023-01-21T00:28:50.387Z,28.47
2023-01-21T00:29:20.510Z,28.48
2023-01-21T00:29:50.622Z,28.51
2023-01-21T00:30:20.741Z,28.42
2023-01-21T00:30:52.560Z,28.40
2023-01-21T00:31:21.001Z,28.42
2023-01-21T00:31:51.008Z,28.42
2023-01-21T00:32:20.990Z,28.44
2023-01-21T00:32:50.988Z,28.45
2023-01-21T00:33:21.024Z,28.47
2023-01-21T00:33:51.055Z,28.45
2023-01-21T00:34:21.086Z,28.45
2023-01-21T00:34:51.129Z,28.47
2023-01-21T00:35:21.163Z,28.44
2023-01-21T00:35:51.200Z,28.44
2023-01-21T00:36:21.236Z,28.39
2023-01-21T00:36:51.271Z,28.33
2023-01-21T00:37:21.306Z,28.45
2023-01-21T00:37:51.345Z,28.37
2023-01-21T00:38:21.370Z,28.45
2023-01-21T00:38:51.419Z,28.42
2023-01-21T00:39:21.430Z,28.51
2023-01-21T00:39:51.462Z,28.47
2023-01-21T00:40:21.494Z,28.39
2023-01-21T00:40:51.530Z,28.37
2023-01-21T00:41:21.553Z,28.50
2023-01-21T00:41:51.597Z,28.44
2023-01-21T00:42:21.624Z,28.39
2023-01-21T00:42:51.651Z,28.47
2023-01-21T00:43:21.681Z,28.45
2023-01-21T00:43:51.711Z,28.45
2023-01-21T00:44:21.752Z,28.42
2023-01-21T00:44:51.895Z,28.42
2023-01-21T00:45:21.835Z,28.42
2023-01-21T00:45:51.868Z,28.39
2023-01-21T00:46:21.916Z,28.39
2023-01-21T00:46:51.937Z,28.42
2023-01-21T00:47:21.961Z,28.45
2023-01-21T00:47:51.999Z,28.42
2023-01-21T00:48:22.029Z,28.36
2023-01-21T00:48:52.095Z,28.39
2023-01-21T00:49:22.134Z,28.39
2023-01-21T00:49:52.161Z,28.34
2023-01-21T00:50:22.191Z,28.43
2023-01-21T00:50:52.345Z,28.42
2023-01-21T00:51:22.233Z,28.42
2023-01-21T00:51:52.274Z,28.45
2023-01-21T00:52:22.312Z,28.40
2023-01-21T00:52:52.334Z,28.43
2023-01-21T00:53:22.369Z,28.39
2023-01-21T00:53:52.393Z,28.40
2023-01-21T00:54:22.450Z,28.45
2023-01-21T00:54:52.459Z,28.39
2023-01-21T00:55:22.512Z,28.37
2023-01-21T00:55:52.524Z,28.45
2023-01-21T00:56:22.584Z,28.39
2023-01-21T00:56:52.609Z,28.42
2023-01-21T00:57:22.647Z,28.34
2023-01-21T00:57:52.756Z,28.40
2023-01-21T00:58:22.843Z,28.36
2023-01-21T00:58:52.881Z,28.37
2023-01-21T00:59:22.914Z,28.37
2023-01-21T00:59:52.929Z,28.36
2023-01-21T01:00:22.969Z,28.40
2023-01-21T01:00:53.003Z,28.39
2023-01-21T01:01:23.071Z,28.39
2023-01-21T01:01:53.121Z,28.39
2023-01-21T01:02:23.186Z,28.34
2023-01-21T01:02:53.325Z,28.36
2023-01-21T01:03:23.340Z,28.42
2023-01-21T01:03:53.374Z,28.48
2023-01-21T01:04:23.408Z,28.51
2023-01-21T01:04:53.449Z,28.55
2023-01-21T01:05:23.483Z,28.54
2023-01-21T01:05:53.523Z,28.54
2023-01-21T01:06:23.587Z,28.51
2023-01-21T01:06:53.607Z,28.55
2023-01-21T01:07:23.646Z,28.60
2023-01-21T01:07:53.672Z,28.60
2023-01-21T01:08:23.707Z,28.55
2023-01-21T01:08:53.737Z,28.54
2023-01-21T01:09:23.765Z,28.52
2023-01-21T01:09:53.820Z,28.57
2023-01-21T01:10:23.833Z,28.52
2023-01-21T01:10:53.861Z,28.52
2023-01-21T01:11:23.896Z,28.52
2023-01-21T01:11:53.930Z,28.50
2023-01-21T01:12:23.994Z,28.50
2023-01-21T01:12:54.021Z,28.50
2023-01-21T01:13:24.056Z,28.58
2023-01-21T01:13:54.083Z,28.50
2023-01-21T01:14:24.118Z,28.53
2023-01-21T01:14:54.152Z,28.53
2023-01-21T01:15:24.186Z,28.49
2023-01-21T01:15:54.254Z,28.50
2023-01-21T01:16:24.315Z,28.50
2023-01-21T01:16:54.348Z,28.50
2023-01-21T01:17:24.369Z,28.40
2023-01-21T01:17:54.402Z,28.40
2023-01-21T01:18:24.439Z,28.41
2023-01-21T01:18:54.479Z,28.37
2023-01-21T01:19:24.515Z,28.36
2023-01-21T01:19:54.535Z,28.30
2023-01-21T01:20:24.565Z,28.38
2023-01-21T01:20:54.622Z,28.35
2023-01-21T01:21:24.640Z,28.35
2023-01-21T01:21:54.681Z,28.29
2023-01-21T01:22:24.703Z,28.36
2023-01-21T01:22:54.735Z,28.40
2023-01-21T01:23:24.851Z,28.46
2023-01-21T01:23:54.870Z,28.43
2023-01-21T01:25:03.992Z,28.33
2023-01-21T01:25:34.046Z,28.39
2023-01-21T01:26:04.139Z,28.41
2023-01-21T01:26:34.217Z,28.38
2023-01-21T01:27:04.297Z,28.39
2023-01-21T01:27:34.380Z,28.45
2023-01-21T01:28:04.464Z,28.45
2023-01-21T01:28:34.550Z,28.42
2023-01-21T01:29:04.622Z,28.50
2023-01-21T01:29:34.704Z,28.53
2023-01-21T01:30:04.796Z,28.42
2023-01-21T01:30:34.884Z,28.45
2023-01-21T01:31:05.116Z,28.42
2023-01-21T01:31:35.193Z,28.39
2023-01-21T01:32:05.157Z,28.44
2023-01-21T01:32:35.248Z,28.44
2023-01-21T01:33:05.325Z,28.45
2023-01-21T01:33:35.411Z,28.44
2023-01-21T01:34:05.513Z,28.42
2023-01-21T01:34:35.584Z,28.36
2023-01-21T01:35:05.701Z,28.48
2023-01-21T01:35:35.699Z,28.44
2023-01-21T01:36:05.698Z,28.38
2023-01-21T01:36:35.705Z,28.39
2023-01-21T01:37:05.830Z,28.34
2023-01-21T01:37:35.831Z,28.39
2023-01-21T01:38:05.829Z,28.39
2023-01-21T01:38:35.835Z,28.42
2023-01-21T01:39:05.866Z,28.42
2023-01-21T01:39:35.883Z,28.39
2023-01-21T01:40:05.997Z,28.42
2023-01-21T01:40:36.031Z,28.44
2023-01-21T01:41:06.003Z,28.38
2023-01-21T01:41:35.995Z,28.41
2023-01-21T01:42:05.987Z,28.35
2023-01-21T01:42:36.102Z,28.33
2023-01-21T01:43:06.093Z,28.31
2023-01-21T01:43:36.217Z,28.35
2023-01-21T01:44:06.339Z,28.34
2023-01-21T01:44:36.330Z,28.34
2023-01-21T01:45:06.323Z,28.33
2023-01-21T01:45:36.447Z,28.31
2023-01-21T01:46:06.450Z,28.36
2023-01-21T01:46:36.588Z,28.31
2023-01-21T01:47:06.449Z,28.33
2023-01-21T01:47:36.447Z,28.33
2023-01-21T01:48:06.569Z,28.39
2023-01-21T01:48:36.565Z,28.36
2023-01-21T01:49:06.556Z,28.33
2023-01-21T01:49:36.675Z,28.33
2023-01-21T01:50:06.664Z,28.30
2023-01-21T01:50:36.660Z,28.32
2023-01-21T01:51:06.859Z,28.39
2023-01-21T01:51:36.828Z,28.33
2023-01-21T01:52:06.950Z,28.27
2023-01-21T01:52:36.946Z,28.30
2023-01-21T01:53:07.068Z,28.29
2023-01-21T01:53:37.064Z,28.31
2023-01-21T01:54:07.073Z,28.39
2023-01-21T01:54:37.067Z,28.29
2023-01-21T01:55:07.183Z,28.25
2023-01-21T01:55:37.305Z,28.25
2023-01-21T01:56:07.336Z,28.23
2023-01-21T01:56:37.305Z,28.30
2023-01-21T01:57:07.309Z,28.23
2023-01-21T01:57:37.316Z,28.25
2023-01-21T01:58:07.418Z,28.25
2023-01-21T01:58:37.419Z,28.24
2023-01-21T01:59:07.419Z,28.24
2023-01-21T01:59:37.411Z,28.25
2023-01-21T02:00:07.422Z,28.30
2023-01-21T02:00:37.436Z,28.24
2023-01-21T02:01:07.407Z,28.27
2023-01-21T02:01:37.456Z,28.31
2023-01-21T02:02:07.474Z,28.29
2023-01-21T02:02:37.523Z,28.29
2023-01-21T02:03:07.583Z,28.29
2023-01-21T02:03:37.566Z,28.24
2023-01-21T02:04:07.562Z,28.30
2023-01-21T02:04:37.550Z,28.29
2023-01-21T02:05:07.544Z,28.25
2023-01-21T02:05:37.537Z,28.30
2023-01-21T02:06:07.538Z,28.25
2023-01-21T02:06:37.531Z,28.29
2023-01-21T02:07:07.536Z,28.22
2023-01-21T02:07:37.529Z,28.21
2023-01-21T02:08:07.528Z,28.21
2023-01-21T02:08:37.524Z,28.25
2023-01-21T02:09:07.641Z,28.30
2023-01-21T02:09:37.633Z,28.33
2023-01-21T02:10:07.755Z,28.39
2023-01-21T02:10:37.867Z,28.44
2023-01-21T02:11:07.992Z,28.45
2023-01-21T02:11:38.014Z,28.46
2023-01-21T02:12:08.103Z,28.45
2023-01-21T02:12:38.143Z,28.54
2023-01-21T02:13:08.139Z,28.49
2023-01-21T02:13:38.260Z,28.46
2023-01-21T02:14:08.378Z,28.48
2023-01-21T02:14:38.371Z,28.45
2023-01-21T02:15:08.372Z,28.43
2023-01-21T02:15:38.484Z,28.45
2023-01-21T02:16:08.657Z,28.48
2023-01-21T02:16:38.644Z,28.40
2023-01-21T02:17:08.631Z,28.45
2023-01-21T02:17:38.626Z,28.48
2023-01-21T02:18:08.744Z,28.46
2023-01-21T02:18:38.864Z,28.46
2023-01-21T02:19:08.977Z,28.49
2023-01-21T02:19:38.973Z,28.47
2023-01-21T02:20:09.096Z,28.49
2023-01-21T02:20:39.217Z,28.45
2023-01-21T02:21:09.215Z,28.42
2023-01-21T02:21:39.212Z,28.43
2023-01-21T02:22:09.324Z,28.45
2023-01-21T02:22:39.318Z,28.47
2023-01-21T02:23:09.437Z,28.45
2023-01-21T02:23:39.553Z,28.43
2023-01-21T02:24:09.616Z,28.38
2023-01-21T02:24:39.702Z,28.40
2023-01-21T02:25:09.791Z,28.35
2023-01-21T02:25:39.857Z,28.37
2023-01-21T02:26:09.956Z,28.37
2023-01-21T02:26:40.062Z,28.35
2023-01-21T02:27:10.152Z,28.37
2023-01-21T02:27:40.210Z,28.37
2023-01-21T02:28:12.688Z,28.26
2023-01-21T02:28:40.326Z,28.37
2023-01-21T02:29:10.410Z,28.31
2023-01-21T02:29:40.488Z,28.34
2023-01-21T02:30:10.571Z,28.31
2023-01-21T02:30:40.670Z,28.32
2023-01-21T02:31:10.877Z,28.38
2023-01-21T02:31:40.953Z,28.36
2023-01-21T02:32:10.930Z,28.40
2023-01-21T02:32:40.984Z,28.37
2023-01-21T02:33:11.063Z,28.31
2023-01-21T02:33:41.139Z,28.35
2023-01-21T02:34:11.241Z,28.40
2023-01-21T02:34:41.308Z,28.34
2023-01-21T02:35:11.437Z,28.35
2023-01-21T02:35:41.540Z,28.32
2023-01-21T02:36:11.537Z,28.34
2023-01-21T02:36:41.533Z,28.29
2023-01-21T02:37:11.653Z,28.34
2023-01-21T02:37:41.655Z,28.34
2023-01-21T02:38:11.657Z,28.38
2023-01-21T02:38:41.776Z,28.29
2023-01-21T02:39:11.899Z,28.34
2023-01-21T02:39:41.886Z,28.30
2023-01-21T02:40:12.005Z,28.34
2023-01-21T02:40:42.123Z,28.34
2023-01-21T02:41:12.120Z,28.35
2023-01-21T02:41:42.111Z,28.32
2023-01-21T02:42:12.225Z,28.35
2023-01-21T02:42:42.371Z,28.35
2023-01-21T02:43:12.366Z,28.29
2023-01-21T02:43:42.350Z,28.35
2023-01-21T02:44:12.471Z,28.23
2023-01-21T02:44:42.456Z,28.32
2023-01-21T02:45:12.581Z,28.26
2023-01-21T02:45:42.700Z,28.29
2023-01-21T02:46:12.862Z,28.28
2023-01-21T02:46:43.012Z,28.32
2023-01-21T02:47:12.992Z,28.28
2023-01-21T02:47:43.112Z,28.25
2023-01-21T02:48:13.105Z,28.27
2023-01-21T02:48:43.098Z,28.28
2023-01-21T02:49:13.098Z,28.25
2023-01-21T02:49:43.108Z,28.26
2023-01-21T02:50:13.086Z,28.27
2023-01-21T02:50:43.076Z,28.20
2023-01-21T02:51:13.222Z,28.29
2023-01-21T02:51:43.215Z,28.25
2023-01-21T02:52:13.220Z,28.26
2023-01-21T02:52:43.210Z,28.29
2023-01-21T02:53:13.328Z,28.29
2023-01-21T02:53:43.442Z,28.26
2023-01-21T02:54:13.443Z,28.28
2023-01-21T02:54:43.431Z,28.30
2023-01-21T02:55:13.437Z,28.20
2023-01-21T02:55:43.676Z,28.23
2023-01-21T02:56:13.634Z,28.20
2023-01-21T02:56:43.764Z,28.33
2023-01-21T02:57:13.756Z,28.29
2023-01-21T02:57:43.752Z,28.30
2023-01-21T02:58:13.893Z,28.26
2023-01-21T02:58:43.872Z,28.18
2023-01-21T02:59:13.867Z,28.24
2023-01-21T02:59:43.992Z,28.29
2023-01-21T03:00:14.153Z,28.26
2023-01-21T03:00:44.075Z,28.30
2023-01-21T03:01:14.097Z,28.24
2023-01-21T03:01:44.129Z,28.23
2023-01-21T03:02:14.181Z,28.25
2023-01-21T03:02:44.144Z,28.30
2023-01-21T03:03:14.266Z,28.24
2023-01-21T03:03:44.272Z,28.29
2023-01-21T03:04:14.376Z,28.27
2023-01-21T03:04:44.488Z,28.21
2023-01-21T03:05:14.486Z,28.21
2023-01-21T03:05:44.609Z,28.24
2023-01-21T03:06:14.723Z,28.21
2023-01-21T03:06:44.729Z,28.24
2023-01-21T03:07:14.754Z,28.26
2023-01-21T03:07:44.740Z,28.23
2023-01-21T03:08:14.853Z,28.24
2023-01-21T03:08:44.842Z,28.23
2023-01-21T03:09:14.968Z,28.24
2023-01-21T03:09:45.085Z,28.15
2023-01-21T03:10:15.333Z,28.29
2023-01-21T03:10:45.119Z,28.30
2023-01-21T03:11:15.231Z,28.29
2023-01-21T03:11:45.225Z,28.35
2023-01-21T03:12:15.240Z,28.38
2023-01-21T03:12:45.282Z,28.42
2023-01-21T03:13:15.300Z,28.45
2023-01-21T03:13:45.311Z,28.44
2023-01-21T03:14:15.403Z,28.47
2023-01-21T03:14:45.393Z,28.47
2023-01-21T03:15:15.389Z,28.45
2023-01-21T03:15:45.510Z,28.47
2023-01-21T03:16:15.664Z,28.47
2023-01-21T03:16:45.625Z,28.48
2023-01-21T03:17:15.756Z,28.47
2023-01-21T03:17:45.752Z,28.42
2023-01-21T03:18:15.872Z,28.50
2023-01-21T03:18:45.987Z,28.45
2023-01-21T03:19:16.107Z,28.47
2023-01-21T03:19:46.104Z,28.41
2023-01-21T03:20:16.626Z,28.50
2023-01-21T03:20:46.283Z,28.50
2023-01-21T03:21:16.403Z,28.47
2023-01-21T03:21:46.396Z,28.44
2023-01-21T03:22:16.540Z,28.47
2023-01-21T03:22:46.532Z,28.44
2023-01-21T03:23:16.542Z,28.42
2023-01-21T03:23:46.519Z,28.47
2023-01-21T03:24:16.542Z,28.41
2023-01-21T03:24:46.630Z,28.44
2023-01-21T03:25:16.713Z,28.45
2023-01-21T03:25:46.785Z,28.44
2023-01-21T03:26:16.870Z,28.44
2023-01-21T03:26:46.950Z,28.39
2023-01-21T03:27:17.085Z,28.30
2023-01-21T03:27:47.064Z,28.28
2023-01-21T03:28:17.141Z,28.36
2023-01-21T03:28:47.226Z,28.33
2023-01-21T03:29:17.329Z,28.25
2023-01-21T03:29:47.380Z,28.25
2023-01-21T03:30:17.839Z,28.22
2023-01-21T03:30:47.524Z,28.37
2023-01-21T03:31:17.663Z,28.30
2023-01-21T03:31:47.649Z,28.30
2023-01-21T03:32:17.752Z,28.31
2023-01-21T03:32:47.831Z,28.33
2023-01-21T03:33:17.909Z,28.28
2023-01-21T03:33:47.990Z,28.27
2023-01-21T03:34:18.068Z,28.27
2023-01-21T03:34:48.180Z,28.28
2023-01-21T03:35:18.296Z,28.30
2023-01-21T03:35:48.286Z,28.30
2023-01-21T03:36:18.283Z,28.28
2023-01-21T03:36:48.276Z,28.36
2023-01-21T03:37:18.298Z,28.28
2023-01-21T03:37:48.296Z,28.27
2023-01-21T03:38:18.418Z,28.25
2023-01-21T03:38:48.409Z,28.33
2023-01-21T03:39:18.522Z,28.30
2023-01-21T03:39:48.637Z,28.25
2023-01-21T03:40:19.262Z,28.30
2023-01-21T03:40:48.766Z,28.28
2023-01-21T03:41:18.873Z,28.24
2023-01-21T03:41:48.877Z,28.27
2023-01-21T03:42:18.992Z,28.27
2023-01-21T03:42:49.106Z,28.25
2023-01-21T03:43:19.192Z,28.33
2023-01-21T03:43:49.196Z,28.24
2023-01-21T03:44:19.183Z,28.28
2023-01-21T03:44:49.319Z,28.20
2023-01-21T03:45:19.443Z,28.25
2023-01-21T03:45:49.481Z,28.25
2023-01-21T03:46:19.483Z,28.31
2023-01-21T03:46:49.472Z,28.24
2023-01-21T03:47:19.599Z,28.30
2023-01-21T03:47:49.703Z,28.16
2023-01-21T03:48:19.736Z,28.22
2023-01-21T03:48:49.725Z,28.19
2023-01-21T03:49:19.838Z,28.18
2023-01-21T03:49:49.957Z,28.24
2023-01-21T03:50:20.073Z,28.21
2023-01-21T03:50:50.210Z,28.24
2023-01-21T03:51:20.301Z,28.24
2023-01-21T03:51:50.418Z,28.21
2023-01-21T03:52:20.538Z,28.20
2023-01-21T03:52:50.527Z,28.24
2023-01-21T03:53:20.585Z,28.16
2023-01-21T03:53:50.579Z,28.25
2023-01-21T03:54:20.707Z,28.21
2023-01-21T03:54:50.688Z,28.25
2023-01-21T03:55:20.806Z,28.25
2023-01-21T03:55:50.935Z,28.25
2023-01-21T03:56:21.054Z,28.24
2023-01-21T03:56:51.039Z,28.21
2023-01-21T03:57:21.163Z,28.22
2023-01-21T03:57:51.289Z,28.27
2023-01-21T03:58:21.281Z,28.22
2023-01-21T03:58:51.393Z,28.22
2023-01-21T03:59:21.509Z,28.25
2023-01-21T03:59:51.517Z,28.20
2023-01-21T04:00:21.526Z,28.27
2023-01-21T04:00:51.659Z,28.22
2023-01-21T04:01:21.720Z,28.22
2023-01-21T04:01:51.727Z,28.24
2023-01-21T04:02:21.747Z,28.25
2023-01-21T04:02:51.743Z,28.24
2023-01-21T04:03:21.765Z,28.24
2023-01-21T04:03:51.768Z,28.25
2023-01-21T04:04:21.758Z,28.23
2023-01-21T04:04:51.753Z,28.23
2023-01-21T04:05:21.866Z,28.29
2023-01-21T04:05:51.984Z,28.26
2023-01-21T04:06:22.113Z,28.25
2023-01-21T04:06:52.215Z,28.26
2023-01-21T04:07:22.332Z,28.29
2023-01-21T04:07:52.453Z,28.28
2023-01-21T04:08:22.590Z,28.28
2023-01-21T04:08:52.643Z,28.29
2023-01-21T04:09:22.611Z,28.33
2023-01-21T04:09:52.607Z,28.29
2023-01-21T04:10:22.720Z,28.26
2023-01-21T04:10:52.713Z,28.28
2023-01-21T04:11:22.712Z,28.32
2023-01-21T04:11:52.836Z,28.29
2023-01-21T04:12:22.824Z,28.39
2023-01-21T04:12:52.818Z,28.40
2023-01-21T04:13:22.957Z,28.37
2023-01-21T04:13:52.951Z,28.39
2023-01-21T04:14:22.949Z,28.46
2023-01-21T04:14:53.067Z,28.43
2023-01-21T04:15:23.068Z,28.47
2023-01-21T04:15:53.106Z,28.43
2023-01-21T04:16:23.114Z,28.44
2023-01-21T04:16:53.113Z,28.41
2023-01-21T04:17:23.105Z,28.47
2023-01-21T04:17:53.228Z,28.41
2023-01-21T04:18:23.219Z,28.40
2023-01-21T04:18:53.214Z,28.41
2023-01-21T04:19:23.334Z,28.43
2023-01-21T04:19:53.444Z,28.38
2023-01-21T04:20:23.565Z,28.40
2023-01-21T04:20:53.714Z,28.38
2023-01-21T04:21:23.856Z,28.43
2023-01-21T04:21:53.864Z,28.47
2023-01-21T04:22:23.906Z,28.38
2023-01-21T04:22:54.045Z,28.43
2023-01-21T04:23:24.039Z,28.44
2023-01-21T04:23:54.033Z,28.40
2023-01-21T04:24:24.159Z,28.34
2023-01-21T04:24:54.258Z,28.35
2023-01-21T04:25:24.339Z,28.32
2023-01-21T04:25:54.410Z,28.32
2023-01-21T04:26:24.490Z,28.40
2023-01-21T04:26:54.580Z,28.40
2023-01-21T04:27:24.672Z,28.32
2023-01-21T04:27:54.759Z,28.34
2023-01-21T04:28:24.840Z,28.34
2023-01-21T04:28:54.924Z,28.29
2023-01-21T04:29:25.005Z,28.32
2023-01-21T04:29:55.088Z,28.27
2023-01-21T04:30:25.171Z,28.28
2023-01-21T04:30:55.338Z,28.26
2023-01-21T04:31:25.315Z,28.24
2023-01-21T04:31:55.421Z,28.27
2023-01-21T04:32:25.477Z,28.25
2023-01-21T04:32:55.574Z,28.21
2023-01-21T04:33:25.683Z,28.18
2023-01-21T04:33:55.775Z,28.29
2023-01-21T04:34:25.838Z,28.23
2023-01-21T04:34:55.959Z,28.21
2023-01-21T04:35:25.946Z,28.17
2023-01-21T04:35:56.071Z,28.23
2023-01-21T04:36:26.186Z,28.18
2023-01-21T04:36:56.187Z,28.18
2023-01-21T04:37:26.172Z,28.17
2023-01-21T04:37:56.290Z,28.18
2023-01-21T04:38:26.431Z,28.14
2023-01-21T04:38:56.422Z,28.17
2023-01-21T04:39:26.416Z,28.21
2023-01-21T04:39:56.416Z,28.15
2023-01-21T04:40:26.410Z,28.17
2023-01-21T04:40:56.408Z,28.20
2023-01-21T04:41:26.409Z,28.18
2023-01-21T04:41:56.407Z,28.23
2023-01-21T04:42:26.526Z,28.18
2023-01-21T04:42:56.516Z,28.21
2023-01-21T04:43:26.526Z,28.20
2023-01-21T04:43:56.529Z,28.21
2023-01-21T04:44:26.633Z,28.17
2023-01-21T04:44:56.628Z,28.18
2023-01-21T04:45:26.621Z,28.18
2023-01-21T04:45:56.786Z,28.12
2023-01-21T04:46:26.791Z,28.21
2023-01-21T04:46:56.886Z,28.20
2023-01-21T04:47:27.000Z,28.17
2023-01-21T04:47:56.992Z,28.19
2023-01-21T04:48:26.997Z,28.19
2023-01-21T04:48:56.984Z,28.22
2023-01-21T04:49:27.098Z,28.20
2023-01-21T04:49:57.218Z,28.21
2023-01-21T04:50:27.347Z,28.21
2023-01-21T04:50:57.462Z,28.25
2023-01-21T04:51:27.454Z,28.24
2023-01-21T04:51:57.451Z,28.14
2023-01-21T04:52:27.441Z,28.20
2023-01-21T04:52:57.429Z,28.21
2023-01-21T04:53:27.434Z,28.15
2023-01-21T04:53:57.442Z,28.17
2023-01-21T04:54:27.547Z,28.12
2023-01-21T04:54:57.670Z,28.14
2023-01-21T04:55:27.784Z,28.12
2023-01-21T04:55:57.900Z,28.17
2023-01-21T04:56:28.027Z,28.12
2023-01-21T04:56:58.139Z,28.09
2023-01-21T04:57:28.249Z,28.20
2023-01-21T04:57:58.378Z,28.20
2023-01-21T04:58:28.386Z,28.14
2023-01-21T04:58:58.392Z,28.17
2023-01-21T04:59:28.378Z,28.20
2023-01-21T04:59:58.376Z,28.14
2023-01-21T05:00:28.493Z,28.17
2023-01-21T05:00:58.633Z,28.14
2023-01-21T05:01:28.720Z,28.17
2023-01-21T05:01:58.790Z,28.11
2023-01-21T05:02:28.828Z,28.15
2023-01-21T05:02:58.808Z,28.09
2023-01-21T05:03:28.946Z,28.12
2023-01-21T05:03:58.924Z,28.17
2023-01-21T05:04:28.934Z,28.08
2023-01-21T05:04:58.923Z,28.14
2023-01-21T05:05:29.060Z,28.14
2023-01-21T05:05:59.035Z,28.11
2023-01-21T05:06:29.030Z,28.11
2023-01-21T05:06:59.148Z,28.12
2023-01-21T05:07:29.149Z,28.10
2023-01-21T05:07:59.140Z,28.09
2023-01-21T05:08:29.267Z,28.14
2023-01-21T05:08:59.259Z,28.14
2023-01-21T05:09:29.250Z,28.12
2023-01-21T05:09:59.246Z,28.17
2023-01-21T05:10:29.241Z,28.17
2023-01-21T05:10:59.361Z,28.12
2023-01-21T05:11:29.352Z,28.15
2023-01-21T05:11:59.470Z,28.15
2023-01-21T05:12:29.586Z,28.14
2023-01-21T05:12:59.707Z,28.17
2023-01-21T05:13:29.840Z,28.23
2023-01-21T05:13:59.841Z,28.23
2023-01-21T05:14:29.829Z,28.26
2023-01-21T05:14:59.829Z,28.29
2023-01-21T05:15:29.881Z,28.27
2023-01-21T05:15:59.902Z,28.33
2023-01-21T05:16:30.031Z,28.36
2023-01-21T05:17:00.157Z,28.30
2023-01-21T05:17:30.221Z,28.30
2023-01-21T05:18:00.181Z,28.30
2023-01-21T05:18:30.310Z,28.35
2023-01-21T05:19:00.302Z,28.35
2023-01-21T05:19:30.423Z,28.27
2023-01-21T05:20:00.531Z,28.26
2023-01-21T05:20:30.659Z,28.27
2023-01-21T05:21:00.644Z,28.29
2023-01-21T05:21:30.761Z,28.27
2023-01-21T05:22:00.890Z,28.26
2023-01-21T05:22:30.874Z,28.25
2023-01-21T05:23:00.986Z,28.28
2023-01-21T05:23:31.131Z,28.30
2023-01-21T05:24:01.124Z,28.28
2023-01-21T05:24:31.248Z,28.28
2023-01-21T05:25:01.328Z,28.28
2023-01-21T05:25:31.400Z,28.28
2023-01-21T05:26:01.494Z,28.30
2023-01-21T05:26:31.567Z,28.28
2023-01-21T05:27:01.649Z,28.25
2023-01-21T05:27:31.725Z,28.28
2023-01-21T05:28:01.798Z,28.31
2023-01-21T05:28:31.906Z,28.28
2023-01-21T05:29:01.988Z,28.25
2023-01-21T05:29:32.065Z,28.23
2023-01-21T05:30:02.143Z,28.22
2023-01-21T05:30:32.245Z,28.22
2023-01-21T05:31:02.452Z,28.19
2023-01-21T05:31:32.490Z,28.14
2023-01-21T05:32:02.459Z,28.16
2023-01-21T05:32:32.488Z,28.14
2023-01-21T05:33:02.543Z,28.18
2023-01-21T05:33:32.649Z,28.13
2023-01-21T05:34:02.725Z,28.10
2023-01-21T05:34:32.815Z,28.13
2023-01-21T05:35:02.932Z,28.10
2023-01-21T05:35:32.922Z,28.09
2023-01-21T05:36:02.925Z,28.13
2023-01-21T05:36:33.037Z,28.06
2023-01-21T05:37:03.156Z,28.11
2023-01-21T05:37:33.268Z,28.11
2023-01-21T05:38:03.389Z,28.13
2023-01-21T05:38:33.519Z,28.12
2023-01-21T05:39:03.513Z,28.13
2023-01-21T05:39:33.633Z,28.09
2023-01-21T05:40:03.755Z,28.10
2023-01-21T05:40:33.751Z,28.13
2023-01-21T05:41:03.869Z,28.09
2023-01-21T05:41:33.976Z,28.11
2023-01-21T05:42:03.977Z,28.14
2023-01-21T05:42:33.965Z,28.10
2023-01-21T05:43:04.083Z,28.09
2023-01-21T05:43:34.107Z,28.16
2023-01-21T05:44:04.162Z,28.13
2023-01-21T05:44:34.287Z,28.02
2023-01-21T05:45:04.405Z,28.06
2023-01-21T05:45:34.391Z,28.13
2023-01-21T05:46:04.575Z,28.07
2023-01-21T05:46:34.567Z,28.09
2023-01-21T05:47:04.598Z,28.07
2023-01-21T05:47:34.584Z,28.15
2023-01-21T05:48:04.605Z,28.09
2023-01-21T05:48:34.595Z,28.09
2023-01-21T05:49:04.593Z,28.10
2023-01-21T05:49:34.700Z,28.07
2023-01-21T05:50:04.817Z,28.07
2023-01-21T05:50:34.927Z,28.13
2023-01-21T05:51:05.074Z,28.07
2023-01-21T05:51:35.051Z,28.04
2023-01-21T05:52:05.057Z,28.04
2023-01-21T05:52:35.047Z,28.07
2023-01-21T05:53:05.155Z,28.07
2023-01-21T05:53:35.568Z,28.07
2023-01-21T05:54:05.314Z,28.09
2023-01-21T05:54:35.434Z,28.07
2023-01-21T05:55:05.545Z,28.01
2023-01-21T05:55:35.543Z,28.09
2023-01-21T05:56:05.661Z,28.11
2023-01-21T05:56:35.781Z,28.09
2023-01-21T05:57:05.773Z,28.10
2023-01-21T05:57:35.792Z,28.07
2023-01-21T05:58:05.761Z,28.07
2023-01-21T05:58:35.929Z,28.02
2023-01-21T05:59:05.946Z,28.06
2023-01-21T05:59:36.056Z,28.04
2023-01-21T06:00:06.084Z,28.09
2023-01-21T06:00:36.061Z,28.09
2023-01-21T06:01:06.061Z,28.07
2023-01-21T06:01:36.080Z,28.04
2023-01-21T06:02:06.068Z,28.02
2023-01-21T06:02:36.205Z,28.04
2023-01-21T06:03:06.304Z,28.07
2023-01-21T06:03:36.576Z,27.98
2023-01-21T06:04:06.426Z,28.02
2023-01-21T06:04:36.541Z,28.01
2023-01-21T06:05:06.541Z,27.96
2023-01-21T06:05:36.656Z,27.98
2023-01-21T06:06:06.780Z,28.06
2023-01-21T06:06:36.768Z,28.06
2023-01-21T06:07:06.884Z,28.06
2023-01-21T06:07:36.995Z,28.01
2023-01-21T06:08:06.995Z,28.04
2023-01-21T06:08:37.013Z,28.01
2023-01-21T06:09:07.003Z,28.01
2023-01-21T06:09:37.121Z,28.10
2023-01-21T06:10:07.239Z,27.99
2023-01-21T06:10:37.356Z,28.06
2023-01-21T06:11:07.474Z,28.02
2023-01-21T06:11:37.469Z,28.04
2023-01-21T06:12:07.586Z,28.14
2023-01-21T06:12:37.705Z,28.09
2023-01-21T06:13:07.709Z,28.14
2023-01-21T06:13:37.712Z,28.20
2023-01-21T06:14:07.713Z,28.22
2023-01-21T06:14:37.709Z,28.22
2023-01-21T06:15:07.826Z,28.19
2023-01-21T06:15:37.854Z,28.22
2023-01-21T06:16:07.938Z,28.24
2023-01-21T06:16:37.911Z,28.16
2023-01-21T06:17:08.032Z,28.18
2023-01-21T06:17:38.138Z,28.14
2023-01-21T06:18:08.271Z,28.19
2023-01-21T06:18:38.395Z,28.19
2023-01-21T06:19:08.402Z,28.13
2023-01-21T06:19:38.495Z,28.14
2023-01-21T06:20:08.613Z,28.19
2023-01-21T06:20:38.607Z,28.14
2023-01-21T06:21:08.726Z,28.13
2023-01-21T06:21:38.720Z,28.13
2023-01-21T06:22:08.845Z,28.16
2023-01-21T06:22:38.959Z,28.16
2023-01-21T06:23:08.963Z,28.14
2023-01-21T06:23:38.968Z,28.16
2023-01-21T06:24:08.972Z,28.16
2023-01-21T06:24:38.963Z,28.19
2023-01-21T06:25:09.055Z,28.09
2023-01-21T06:25:39.133Z,28.11
2023-01-21T06:26:09.214Z,28.12
2023-01-21T06:26:39.302Z,28.15
2023-01-21T06:27:09.375Z,28.14
2023-01-21T06:27:39.457Z,28.16